createdAt,value
2022-12-09T00:00:19.379Z,26.20
2022-12-09T00:00:42.131Z,23.95
2022-12-09T00:01:07.146Z,25.30
2022-12-09T00:01:29.926Z,25.08
2022-12-09T00:01:52.864Z,25.35
2022-12-09T00:02:15.821Z,25.58
2022-12-09T00:02:38.840Z,25.48
2022-12-09T00:03:01.931Z,25.75
2022-12-09T00:03:25.405Z,26.20
2022-12-09T00:03:48.883Z,25.35
2022-12-09T00:04:11.769Z,26.42
2022-12-09T00:04:34.808Z,26.20
2022-12-09T00:04:57.884Z,25.05
2022-12-09T00:05:20.890Z,24.70
2022-12-09T00:05:43.957Z,26.45
2022-12-09T00:06:09.176Z,26.17
2022-12-09T00:06:31.991Z,26.15
2022-12-09T00:06:54.799Z,24.73
2022-12-09T00:07:17.542Z,24.60
2022-12-09T00:07:40.323Z,26.35
2022-12-09T00:08:03.392Z,26.75
2022-12-09T00:08:26.548Z,28.58
2022-12-09T00:08:49.887Z,27.13
2022-12-09T00:09:15.847Z,26.83
2022-12-09T00:09:39.285Z,25.40
2022-12-09T00:10:02.141Z,25.77
2022-12-09T00:10:24.882Z,25.15
2022-12-09T00:10:48.313Z,24.23
2022-12-09T00:11:11.542Z,25.70
2022-12-09T00:11:34.400Z,26.65
2022-12-09T00:11:57.049Z,26.42
2022-12-09T00:12:19.789Z,25.45
2022-12-09T00:12:42.628Z,25.60
2022-12-09T00:13:05.407Z,26.42
2022-12-09T00:13:28.243Z,26.35
2022-12-09T00:13:51.049Z,26.00
2022-12-09T00:14:14.049Z,25.80
2022-12-09T00:14:37.084Z,26.55
2022-12-09T00:14:59.802Z,27.00
2022-12-09T00:15:22.811Z,25.60
2022-12-09T00:15:45.977Z,26.48
2022-12-09T00:16:09.649Z,26.15
2022-12-09T00:16:32.707Z,26.38
2022-12-09T00:16:55.907Z,25.45
2022-12-09T00:17:19.996Z,25.48
2022-12-09T00:17:43.322Z,25.52
2022-12-09T00:18:06.234Z,26.15
2022-12-09T00:18:29.236Z,25.63
2022-12-09T00:18:52.015Z,26.52
2022-12-09T00:19:14.814Z,25.42
2022-12-09T00:19:37.574Z,26.25
2022-12-09T00:20:00.332Z,25.65
2022-12-09T00:20:23.275Z,25.27
2022-12-09T00:20:46.062Z,26.33
2022-12-09T00:21:14.583Z,27.05
2022-12-09T00:21:37.651Z,25.33
2022-12-09T00:22:00.599Z,25.33
2022-12-09T00:22:23.681Z,25.60
2022-12-09T00:22:46.483Z,25.80
2022-12-09T00:23:09.239Z,24.40
2022-12-09T00:23:32.121Z,25.67
2022-12-09T00:23:55.726Z,25.17
2022-12-09T00:24:18.566Z,26.23
2022-12-09T00:24:41.489Z,25.52
2022-12-09T00:25:05.164Z,24.95
2022-12-09T00:25:28.133Z,25.70
2022-12-09T00:25:51.109Z,26.33
2022-12-09T00:26:14.051Z,24.90
2022-12-09T00:26:37.041Z,26.30
2022-12-09T00:27:00.212Z,25.58
2022-12-09T00:27:23.139Z,26.40
2022-12-09T00:27:45.866Z,24.88
2022-12-09T00:28:08.580Z,25.73
2022-12-09T00:28:31.436Z,26.38
2022-12-09T00:28:54.374Z,26.90
2022-12-09T00:29:17.061Z,24.35
2022-12-09T00:29:39.819Z,25.15
2022-12-09T00:30:02.529Z,26.35
2022-12-09T00:30:25.933Z,26.30
2022-12-09T00:30:48.983Z,24.55
2022-12-09T00:31:13.480Z,26.00
2022-12-09T00:31:38.555Z,25.33
2022-12-09T00:32:01.607Z,24.40
2022-12-09T00:32:24.768Z,25.25
2022-12-09T00:32:47.694Z,24.10
2022-12-09T00:33:10.560Z,24.48
2022-12-09T00:33:33.632Z,24.75
2022-12-09T00:33:57.570Z,25.02
2022-12-09T00:34:20.325Z,26.42
2022-12-09T00:34:43.205Z,25.52
2022-12-09T00:35:06.998Z,24.08
2022-12-09T00:35:32.483Z,24.85
2022-12-09T00:35:55.285Z,25.13
2022-12-09T00:36:20.757Z,26.25
2022-12-09T00:36:44.174Z,26.73
2022-12-09T00:37:07.055Z,25.40
2022-12-09T00:37:29.854Z,25.80
2022-12-09T00:37:52.555Z,25.95
2022-12-09T00:38:15.274Z,26.90
2022-12-09T00:38:38.136Z,26.35
2022-12-09T00:39:01.440Z,25.95
2022-12-09T00:39:24.419Z,25.85
2022-12-09T00:39:47.338Z,26.60
2022-12-09T00:40:11.784Z,26.83
2022-12-09T00:40:34.819Z,26.52
2022-12-09T00:40:57.808Z,26.08
2022-12-09T00:41:20.729Z,25.92
2022-12-09T00:41:43.561Z,28.52
2022-12-09T00:42:06.339Z,27.05
2022-12-09T00:42:29.044Z,25.83
2022-12-09T00:42:51.715Z,26.65
2022-12-09T00:43:14.454Z,26.17
2022-12-09T00:43:37.155Z,25.75
2022-12-09T00:44:00.100Z,26.23
2022-12-09T00:44:22.976Z,26.83
2022-12-09T00:44:45.917Z,27.95
2022-12-09T00:45:09.354Z,27.40
2022-12-09T00:45:32.690Z,26.77
2022-12-09T00:45:55.448Z,28.00
2022-12-09T00:46:18.391Z,26.77
2022-12-09T00:46:41.209Z,27.83
2022-12-09T00:47:04.280Z,26.38
2022-12-09T00:47:27.396Z,26.48
2022-12-09T00:47:50.703Z,26.50
2022-12-09T00:48:13.511Z,26.08
2022-12-09T00:48:38.684Z,27.02
2022-12-09T00:49:01.614Z,26.73
2022-12-09T00:49:24.746Z,27.67
2022-12-09T00:49:47.816Z,26.40
2022-12-09T00:50:11.741Z,27.38
2022-12-09T00:50:34.454Z,28.60
2022-12-09T00:50:57.405Z,28.80
2022-12-09T00:51:23.159Z,27.77
2022-12-09T00:51:46.260Z,28.30
2022-12-09T00:52:09.075Z,27.77
2022-12-09T00:52:31.818Z,29.75
2022-12-09T00:52:54.608Z,29.15
2022-12-09T00:53:17.606Z,30.15
2022-12-09T00:53:40.750Z,29.95
2022-12-09T00:54:03.562Z,27.50
2022-12-09T00:54:26.526Z,28.63
2022-12-09T00:54:49.505Z,28.27
2022-12-09T00:55:12.705Z,27.70
2022-12-09T00:55:35.846Z,28.00
2022-12-09T00:55:59.187Z,28.63
2022-12-09T00:56:22.235Z,27.23
2022-12-09T00:56:44.954Z,27.77
2022-12-09T00:57:07.720Z,26.40
2022-12-09T00:57:30.568Z,26.33
2022-12-09T00:57:53.589Z,28.95
2022-12-09T00:58:16.229Z,28.33
2022-12-09T00:58:38.840Z,28.95
2022-12-09T00:59:01.770Z,28.17
2022-12-09T00:59:24.592Z,27.58
2022-12-09T00:59:47.583Z,27.02
2022-12-09T01:00:11.647Z,27.67
2022-12-09T01:00:34.959Z,27.23
2022-12-09T01:00:57.930Z,26.50
2022-12-09T01:01:21.139Z,29.02
2022-12-09T01:01:44.522Z,29.20
2022-12-09T01:02:07.622Z,28.27
2022-12-09T01:02:30.612Z,27.75
2022-12-09T01:02:53.909Z,27.17
2022-12-09T01:03:18.045Z,27.90
2022-12-09T01:03:41.764Z,27.75
2022-12-09T01:04:08.374Z,27.10
2022-12-09T01:04:31.819Z,26.85
2022-12-09T01:04:54.972Z,28.17
2022-12-09T01:05:18.542Z,26.90
2022-12-09T01:05:41.758Z,29.33
2022-12-09T01:06:08.571Z,28.08
2022-12-09T01:06:32.711Z,27.67
2022-12-09T01:06:55.573Z,28.02
2022-12-09T01:07:20.815Z,26.48
2022-12-09T01:07:43.727Z,27.73
2022-12-09T01:08:09.477Z,26.73
2022-12-09T01:08:32.658Z,28.00
2022-12-09T01:08:55.800Z,28.20
2022-12-09T01:09:19.042Z,27.60
2022-12-09T01:09:41.870Z,26.55
2022-12-09T01:10:05.240Z,28.55
2022-12-09T01:10:28.505Z,26.60
2022-12-09T01:10:51.194Z,26.60
2022-12-09T01:11:16.349Z,27.25
2022-12-09T01:11:39.130Z,27.40
2022-12-09T01:12:02.079Z,27.73
2022-12-09T01:12:24.860Z,27.85
2022-12-09T01:12:47.601Z,27.63
2022-12-09T01:13:13.219Z,26.77
2022-12-09T01:13:36.080Z,26.92
2022-12-09T01:14:01.216Z,27.85
2022-12-09T01:14:24.289Z,26.92
2022-12-09T01:14:47.133Z,27.08
2022-12-09T01:15:10.796Z,27.75
2022-12-09T01:15:33.639Z,28.05
2022-12-09T01:15:56.758Z,26.80
2022-12-09T01:16:21.081Z,27.58
2022-12-09T01:16:44.288Z,26.08
2022-12-09T01:17:07.508Z,26.27
2022-12-09T01:17:30.545Z,25.02
2022-12-09T01:17:53.375Z,26.65
2022-12-09T01:18:16.028Z,26.88
2022-12-09T01:18:38.956Z,26.05
2022-12-09T01:19:03.096Z,26.90
2022-12-09T01:19:25.902Z,26.02
2022-12-09T01:19:48.795Z,25.58
2022-12-09T01:20:12.262Z,25.88
2022-12-09T01:20:35.469Z,25.73
2022-12-09T01:20:58.880Z,24.90
2022-12-09T01:21:21.735Z,25.08
2022-12-09T01:21:45.928Z,26.25
2022-12-09T01:22:08.540Z,26.23
2022-12-09T01:22:31.488Z,25.83
2022-12-09T01:22:54.370Z,26.42
2022-12-09T01:23:16.991Z,25.88
2022-12-09T01:23:39.706Z,26.85
2022-12-09T01:24:05.624Z,25.42
2022-12-09T01:24:28.641Z,25.95
2022-12-09T01:24:54.064Z,25.63
2022-12-09T01:25:16.905Z,25.05
2022-12-09T01:25:39.990Z,23.83
2022-12-09T01:26:04.446Z,26.73
2022-12-09T01:26:27.327Z,27.17
2022-12-09T01:26:50.175Z,26.15
2022-12-09T01:27:13.154Z,25.17
2022-12-09T01:27:36.064Z,26.52
2022-12-09T01:27:59.136Z,26.05
2022-12-09T01:28:21.995Z,26.67
2022-12-09T01:28:44.993Z,25.38
2022-12-09T01:29:08.063Z,26.08
2022-12-09T01:29:30.977Z,24.65
2022-12-09T01:29:54.069Z,26.13
2022-12-09T01:30:17.242Z,25.88
2022-12-09T01:30:40.202Z,26.17
2022-12-09T01:31:07.260Z,25.83
2022-12-09T01:31:30.264Z,26.13
2022-12-09T01:31:54.825Z,25.80
2022-12-09T01:32:18.252Z,25.63
2022-12-09T01:32:41.512Z,25.92
2022-12-09T01:33:04.675Z,26.15
2022-12-09T01:33:27.540Z,26.25
2022-12-09T01:33:50.552Z,25.73
2022-12-09T01:34:13.486Z,27.63
2022-12-09T01:34:36.464Z,25.65
2022-12-09T01:34:59.829Z,25.25
2022-12-09T01:35:22.912Z,24.58
2022-12-09T01:35:45.934Z,24.90
2022-12-09T01:36:09.915Z,25.63
2022-12-09T01:36:32.644Z,24.70
2022-12-09T01:36:57.384Z,25.45
2022-12-09T01:37:20.155Z,25.20
2022-12-09T01:37:43.151Z,24.88
2022-12-09T01:38:05.919Z,25.55
2022-12-09T01:38:28.856Z,26.30
2022-12-09T01:38:51.993Z,25.67
2022-12-09T01:39:15.244Z,26.15
2022-12-09T01:39:38.156Z,24.92
2022-12-09T01:40:01.650Z,24.90
2022-12-09T01:40:24.407Z,25.52
2022-12-09T01:40:51.402Z,25.75
2022-12-09T01:41:17.244Z,25.08
2022-12-09T01:41:40.000Z,26.25
2022-12-09T01:42:03.412Z,25.20
2022-12-09T01:42:26.800Z,25.08
2022-12-09T01:42:50.399Z,24.73
2022-12-09T01:43:17.988Z,25.30
2022-12-09T01:43:44.679Z,24.70
2022-12-09T01:44:16.232Z,25.38
2022-12-09T01:44:39.313Z,25.40
2022-12-09T01:45:37.609Z,24.55
2022-12-09T01:46:00.479Z,25.45
2022-12-09T01:46:23.591Z,26.02
2022-12-09T01:46:47.015Z,24.02
2022-12-09T01:47:20.672Z,24.98
2022-12-09T01:47:43.740Z,23.63
2022-12-09T01:48:11.537Z,25.58
2022-12-09T01:48:35.235Z,25.88
2022-12-09T01:48:58.696Z,24.65
2022-12-09T01:49:23.977Z,25.02
2022-12-09T01:49:48.289Z,25.67
2022-12-09T01:50:11.242Z,25.80
2022-12-09T01:50:35.563Z,26.05
2022-12-09T01:50:59.584Z,25.52
2022-12-09T01:51:22.657Z,25.20
2022-12-09T01:51:47.902Z,25.05
2022-12-09T01:52:16.638Z,25.45
2022-12-09T01:52:40.096Z,26.08
2022-12-09T01:53:03.199Z,24.60
2022-12-09T01:53:28.164Z,25.42
2022-12-09T01:53:50.946Z,25.75
2022-12-09T01:54:13.984Z,25.60
2022-12-09T01:54:37.675Z,24.92
2022-12-09T01:55:00.415Z,25.27
2022-12-09T01:55:23.355Z,25.40
2022-12-09T01:55:46.427Z,26.38
2022-12-09T01:56:11.446Z,25.73
2022-12-09T01:56:35.107Z,25.90
2022-12-09T01:56:57.969Z,24.35
2022-12-09T01:57:20.734Z,26.35
2022-12-09T01:57:43.829Z,25.40
2022-12-09T01:58:06.987Z,24.52
2022-12-09T01:58:29.926Z,24.92
2022-12-09T01:58:52.842Z,25.83
2022-12-09T01:59:16.014Z,26.45
2022-12-09T01:59:38.956Z,24.40
2022-12-09T02:00:01.942Z,24.55
2022-12-09T02:00:24.921Z,25.10
2022-12-09T02:00:47.659Z,24.27
2022-12-09T02:01:10.333Z,23.92
2022-12-09T02:01:33.656Z,24.77
2022-12-09T02:01:59.427Z,24.77
2022-12-09T02:02:22.373Z,23.38
2022-12-09T02:02:46.832Z,24.52
2022-12-09T02:03:13.011Z,24.45
2022-12-09T02:03:36.240Z,24.50
2022-12-09T02:03:59.309Z,25.30
2022-12-09T02:04:22.646Z,24.70
2022-12-09T02:04:47.978Z,25.60
2022-12-09T02:05:11.297Z,26.13
2022-12-09T02:05:34.350Z,25.23
2022-12-09T02:05:57.298Z,24.20
2022-12-09T02:06:20.310Z,25.05
2022-12-09T02:06:43.499Z,26.05
2022-12-09T02:07:08.872Z,25.80
2022-12-09T02:07:33.319Z,26.50
2022-12-09T02:07:56.452Z,25.70
2022-12-09T02:08:19.699Z,26.85
2022-12-09T02:08:42.707Z,26.88
2022-12-09T02:09:06.074Z,25.77
2022-12-09T02:09:29.238Z,26.35
2022-12-09T02:09:53.490Z,25.58
2022-12-09T02:10:16.862Z,26.75
2022-12-09T02:10:43.659Z,25.65
2022-12-09T02:11:11.023Z,25.63
2022-12-09T02:11:40.102Z,26.25
2022-12-09T02:12:10.027Z,26.50
2022-12-09T02:12:36.901Z,27.25
2022-12-09T02:13:04.562Z,23.98
2022-12-09T02:13:29.897Z,25.70
2022-12-09T02:13:56.540Z,25.55
2022-12-09T02:14:20.691Z,26.02
2022-12-09T02:14:45.598Z,26.15
2022-12-09T02:15:10.643Z,25.65
2022-12-09T02:15:38.166Z,25.08
2022-12-09T02:16:02.716Z,25.77
2022-12-09T02:16:27.767Z,23.73
2022-12-09T02:16:56.380Z,25.20
2022-12-09T02:17:27.304Z,26.73
2022-12-09T02:17:53.328Z,24.77
2022-12-09T02:18:18.681Z,26.38
2022-12-09T02:18:45.528Z,26.77
2022-12-09T02:19:16.134Z,26.17
2022-12-09T02:19:49.465Z,25.55
2022-12-09T02:20:15.541Z,27.73
2022-12-09T02:20:39.983Z,27.23
2022-12-09T02:21:04.677Z,26.42
2022-12-09T02:21:29.023Z,26.05
2022-12-09T02:21:54.385Z,25.33
2022-12-09T02:22:20.427Z,27.20
2022-12-09T02:22:46.083Z,27.95
2022-12-09T02:23:11.676Z,25.63
2022-12-09T02:23:37.285Z,24.00
2022-12-09T02:24:02.025Z,24.00
2022-12-09T02:24:28.762Z,25.13
2022-12-09T02:24:55.507Z,27.25
2022-12-09T02:25:25.039Z,25.27
2022-12-09T02:25:48.894Z,24.52
2022-12-09T02:26:17.065Z,25.23
2022-12-09T02:26:40.943Z,24.45
2022-12-09T02:27:07.578Z,25.00
2022-12-09T02:27:32.328Z,24.20
2022-12-09T02:28:07.415Z,24.08
2022-12-09T02:28:50.476Z,22.67
2022-12-09T02:29:57.984Z,24.25
2022-12-09T02:30:21.393Z,26.60
2022-12-09T02:30:48.518Z,24.67
2022-12-09T02:31:19.279Z,23.95
2022-12-09T02:32:01.143Z,23.88
2022-12-09T02:32:51.556Z,24.13
2022-12-09T02:33:23.272Z,24.50
2022-12-09T02:34:13.040Z,24.30
2022-12-09T02:34:37.847Z,24.88
2022-12-09T02:35:02.001Z,24.55
2022-12-09T02:35:27.039Z,25.00
2022-12-09T02:35:52.536Z,24.92
2022-12-09T02:36:16.536Z,25.70
2022-12-09T02:36:44.874Z,26.10
2022-12-09T02:37:12.564Z,25.90
2022-12-09T02:37:39.078Z,26.52
2022-12-09T02:38:05.578Z,25.52
2022-12-09T02:38:29.183Z,25.70
2022-12-09T02:38:52.191Z,25.80
2022-12-09T02:39:16.154Z,24.23
2022-12-09T02:39:42.270Z,24.90
2022-12-09T02:40:07.162Z,25.33
2022-12-09T02:40:31.379Z,26.20
2022-12-09T02:40:56.964Z,25.23
2022-12-09T02:41:21.343Z,25.50
2022-12-09T02:41:44.586Z,25.05
2022-12-09T02:42:08.948Z,25.58
2022-12-09T02:42:34.018Z,24.25
2022-12-09T02:42:57.034Z,25.23
2022-12-09T02:43:22.439Z,26.23
2022-12-09T02:43:49.915Z,24.77
2022-12-09T02:44:14.787Z,27.23
2022-12-09T02:44:37.919Z,25.60
2022-12-09T02:45:01.381Z,25.85
2022-12-09T02:45:24.380Z,25.17
2022-12-09T02:45:47.098Z,23.85
2022-12-09T02:46:10.138Z,25.48
2022-12-09T02:46:33.133Z,25.00
2022-12-09T02:46:56.917Z,25.95
2022-12-09T02:47:21.208Z,24.08
2022-12-09T02:47:47.238Z,24.90
2022-12-09T02:48:11.021Z,23.52
2022-12-09T02:48:36.352Z,23.77
2022-12-09T02:48:59.483Z,23.65
2022-12-09T02:49:24.554Z,22.90
2022-12-09T02:49:49.291Z,23.02
2022-12-09T02:50:13.536Z,24.13
2022-12-09T02:50:37.561Z,23.13
2022-12-09T02:51:00.415Z,23.80
2022-12-09T02:51:24.059Z,24.83
2022-12-09T02:51:46.857Z,25.48
2022-12-09T02:52:09.743Z,26.17
2022-12-09T02:52:32.480Z,24.45
2022-12-09T02:52:55.628Z,24.45
2022-12-09T02:53:18.641Z,25.42
2022-12-09T02:53:41.460Z,23.48
2022-12-09T02:54:06.031Z,23.70
2022-12-09T02:54:29.439Z,23.83
2022-12-09T02:54:52.541Z,23.35
2022-12-09T02:55:16.474Z,23.98
2022-12-09T02:55:39.464Z,24.50
2022-12-09T02:56:03.296Z,24.58
2022-12-09T02:56:26.127Z,23.33
2022-12-09T02:56:54.110Z,23.00
2022-12-09T02:57:19.421Z,24.10
2022-12-09T02:57:42.395Z,23.27
2022-12-09T02:58:05.345Z,23.60
2022-12-09T02:58:28.038Z,24.55
2022-12-09T02:58:51.023Z,24.50
2022-12-09T02:59:14.163Z,23.73
2022-12-09T02:59:37.229Z,22.88
2022-12-09T02:59:59.984Z,23.05
2022-12-09T03:00:23.009Z,23.70
2022-12-09T03:00:45.985Z,23.15
2022-12-09T03:01:20.592Z,23.35
2022-12-09T03:01:47.764Z,24.42
2022-12-09T03:02:16.729Z,24.13
2022-12-09T03:02:41.118Z,24.73
2022-12-09T03:03:04.993Z,23.90
2022-12-09T03:03:28.388Z,23.67
2022-12-09T03:03:51.963Z,24.67
2022-12-09T03:04:17.623Z,23.42
2022-12-09T03:04:45.175Z,23.20
2022-12-09T03:05:12.964Z,25.63
2022-12-09T03:05:41.483Z,24.77
2022-12-09T03:06:07.242Z,23.17
2022-12-09T03:06:34.275Z,23.17
2022-12-09T03:07:01.727Z,25.25
2022-12-09T03:07:26.743Z,23.95
2022-12-09T03:07:55.256Z,24.13
2022-12-09T03:08:24.734Z,22.80
2022-12-09T03:08:50.777Z,24.70
2022-12-09T03:09:15.329Z,23.33
2022-12-09T03:09:38.550Z,23.63
2022-12-09T03:10:04.947Z,22.42
2022-12-09T03:10:29.719Z,22.85
2022-12-09T03:10:55.483Z,22.52
2022-12-09T03:11:18.900Z,23.02
2022-12-09T03:11:41.992Z,23.42
2022-12-09T03:12:06.985Z,22.65
2022-12-09T03:12:30.879Z,22.90
2022-12-09T03:12:56.644Z,23.17
2022-12-09T03:13:24.493Z,23.38
2022-12-09T03:13:52.398Z,23.67
2022-12-09T03:14:17.699Z,22.90
2022-12-09T03:14:42.242Z,22.95
2022-12-09T03:15:06.201Z,23.17
2022-12-09T03:15:31.283Z,23.70
2022-12-09T03:15:56.030Z,24.23
2022-12-09T03:16:22.809Z,23.77
2022-12-09T03:16:47.915Z,23.40
2022-12-09T03:17:14.200Z,24.55
2022-12-09T03:17:37.255Z,24.42
2022-12-09T03:18:01.624Z,22.48
2022-12-09T03:18:24.498Z,23.90
2022-12-09T03:18:49.061Z,23.17
2022-12-09T03:19:14.846Z,24.13
2022-12-09T03:19:41.021Z,23.23
2022-12-09T03:20:07.119Z,22.42
2022-12-09T03:20:32.619Z,23.38
2022-12-09T03:20:55.545Z,22.33
2022-12-09T03:21:18.942Z,23.55
2022-12-09T03:21:44.149Z,23.27
2022-12-09T03:22:09.263Z,23.73
2022-12-09T03:22:33.245Z,23.55
2022-12-09T03:23:02.707Z,23.38
2022-12-09T03:23:25.848Z,23.85
2022-12-09T03:23:48.599Z,23.63
2022-12-09T03:24:12.122Z,22.70
2022-12-09T03:24:36.543Z,23.65
2022-12-09T03:25:01.702Z,23.65
2022-12-09T03:25:26.480Z,23.08
2022-12-09T03:25:51.445Z,22.27
2022-12-09T03:26:14.216Z,23.08
2022-12-09T03:26:37.851Z,23.17
2022-12-09T03:27:00.658Z,23.52
2022-12-09T03:27:26.085Z,24.00
2022-12-09T03:27:51.514Z,22.17
2022-12-09T03:28:16.454Z,23.05
2022-12-09T03:28:40.782Z,22.55
2022-12-09T03:29:04.123Z,22.83
2022-12-09T03:29:26.952Z,23.00
2022-12-09T03:29:49.847Z,23.55
2022-12-09T03:30:14.967Z,24.60
2022-12-09T03:30:39.692Z,23.92
2022-12-09T03:31:04.437Z,22.90
2022-12-09T03:31:28.699Z,23.80
2022-12-09T03:31:51.932Z,25.45
2022-12-09T03:32:15.425Z,26.42
2022-12-09T03:32:38.496Z,24.63
2022-12-09T03:33:01.392Z,23.60
2022-12-09T03:33:25.327Z,24.20
2022-12-09T03:33:49.705Z,24.25
2022-12-09T03:34:15.225Z,24.90
2022-12-09T03:34:39.138Z,23.50
2022-12-09T03:35:03.527Z,24.92
2022-12-09T03:35:31.813Z,24.95
2022-12-09T03:35:55.972Z,23.92
2022-12-09T03:36:18.998Z,23.60
2022-12-09T03:36:42.244Z,26.27
2022-12-09T03:37:05.295Z,27.15
2022-12-09T03:37:27.993Z,27.65
2022-12-09T03:37:51.301Z,24.77
2022-12-09T03:38:15.037Z,25.98
2022-12-09T03:38:38.464Z,28.17
2022-12-09T03:39:01.343Z,25.85
2022-12-09T03:39:26.248Z,26.27
2022-12-09T03:39:48.986Z,25.90
2022-12-09T03:40:14.499Z,25.40
2022-12-09T03:40:37.648Z,27.35
2022-12-09T03:41:04.710Z,28.23
2022-12-09T03:41:28.769Z,27.95
2022-12-09T03:41:53.607Z,27.50
2022-12-09T03:42:17.799Z,26.52
2022-12-09T03:42:44.807Z,25.95
2022-12-09T03:43:11.000Z,26.42
2022-12-09T03:43:35.986Z,26.75
2022-12-09T03:44:02.244Z,25.02
2022-12-09T03:44:30.087Z,26.27
2022-12-09T03:44:54.384Z,26.73
2022-12-09T03:45:17.539Z,27.10
2022-12-09T03:45:40.401Z,26.15
2022-12-09T03:46:03.464Z,25.00
2022-12-09T03:46:26.795Z,26.30
2022-12-09T03:46:49.914Z,24.90
2022-12-09T03:47:13.081Z,25.25
2022-12-09T03:47:36.554Z,26.15
2022-12-09T03:47:59.493Z,25.17
2022-12-09T03:48:22.298Z,25.58
2022-12-09T03:48:45.325Z,24.20
2022-12-09T03:49:08.049Z,25.48
2022-12-09T03:49:30.868Z,24.80
2022-12-09T03:49:53.558Z,24.95
2022-12-09T03:50:16.517Z,24.70
2022-12-09T03:50:43.833Z,25.30
2022-12-09T03:51:08.193Z,25.60
2022-12-09T03:51:32.131Z,24.50
2022-12-09T03:51:57.320Z,24.83
2022-12-09T03:52:21.256Z,24.95
2022-12-09T03:52:45.900Z,25.55
2022-12-09T03:53:11.038Z,24.63
2022-12-09T03:53:36.774Z,24.67
2022-12-09T03:54:02.143Z,25.30
2022-12-09T03:54:27.678Z,24.98
2022-12-09T03:54:54.114Z,25.00
2022-12-09T03:55:19.945Z,25.45
2022-12-09T03:55:45.174Z,25.05
2022-12-09T03:56:10.398Z,25.80
2022-12-09T03:56:34.794Z,25.40
2022-12-09T03:56:58.412Z,24.67
2022-12-09T03:57:21.309Z,25.33
2022-12-09T03:57:44.179Z,25.20
2022-12-09T03:58:07.372Z,26.80
2022-12-09T03:58:32.132Z,25.70
2022-12-09T03:58:55.984Z,25.20
2022-12-09T03:59:19.216Z,27.23
2022-12-09T03:59:43.092Z,25.70
2022-12-09T04:00:08.400Z,25.58
2022-12-09T04:00:31.513Z,26.08
2022-12-09T04:00:54.337Z,25.88
2022-12-09T04:01:17.203Z,26.83
2022-12-09T04:01:40.233Z,25.65
2022-12-09T04:02:05.634Z,25.35
2022-12-09T04:02:28.689Z,25.65
2022-12-09T04:02:52.582Z,25.88
2022-12-09T04:03:16.089Z,25.33
2022-12-09T04:03:39.708Z,25.50
2022-12-09T04:04:02.694Z,25.47
2022-12-09T04:04:25.553Z,25.75
2022-12-09T04:04:48.537Z,25.17
2022-12-09T04:05:11.658Z,24.25
2022-12-09T04:05:35.039Z,24.92
2022-12-09T04:05:59.474Z,25.73
2022-12-09T04:06:22.578Z,24.88
2022-12-09T04:06:45.449Z,25.98
2022-12-09T04:07:08.288Z,26.58
2022-12-09T04:07:31.061Z,27.55
2022-12-09T04:07:53.913Z,27.00
2022-12-09T04:08:17.417Z,26.42
2022-12-09T04:08:40.292Z,26.13
2022-12-09T04:09:03.353Z,25.83
2022-12-09T04:09:29.062Z,24.90
2022-12-09T04:09:52.088Z,25.52
2022-12-09T04:10:14.964Z,25.23
2022-12-09T04:10:38.061Z,26.50
2022-12-09T04:11:00.967Z,26.65
2022-12-09T04:11:23.672Z,26.25
2022-12-09T04:11:46.426Z,26.15
2022-12-09T04:12:09.463Z,26.38
2022-12-09T04:12:32.221Z,26.08
2022-12-09T04:12:55.051Z,25.95
2022-12-09T04:13:18.101Z,27.15
2022-12-09T04:13:41.227Z,27.35
2022-12-09T04:14:04.300Z,27.35
2022-12-09T04:14:27.623Z,28.02
2022-12-09T04:14:50.688Z,28.23
2022-12-09T04:15:13.895Z,27.35
2022-12-09T04:15:36.880Z,27.50
2022-12-09T04:15:59.920Z,27.23
2022-12-09T04:16:22.873Z,26.77
2022-12-09T04:16:46.252Z,25.10
2022-12-09T04:17:09.915Z,26.90
2022-12-09T04:17:33.089Z,27.25
2022-12-09T04:17:55.858Z,27.98
2022-12-09T04:18:18.828Z,27.23
2022-12-09T04:18:41.855Z,26.58
2022-12-09T04:19:04.985Z,26.13
2022-12-09T04:19:28.342Z,26.88
2022-12-09T04:19:51.213Z,27.55
2022-12-09T04:20:14.890Z,27.15
2022-12-09T04:20:38.209Z,26.98
2022-12-09T04:21:05.380Z,27.58
2022-12-09T04:21:28.098Z,25.85
2022-12-09T04:21:50.840Z,26.27
2022-12-09T04:22:14.250Z,25.95
2022-12-09T04:22:37.012Z,26.77
2022-12-09T04:23:00.185Z,25.10
2022-12-09T04:23:23.313Z,26.60
2022-12-09T04:23:46.281Z,25.92
2022-12-09T04:24:09.567Z,27.27
2022-12-09T04:24:32.520Z,25.95
2022-12-09T04:24:55.441Z,26.00
2022-12-09T04:25:18.325Z,25.02
2022-12-09T04:25:41.013Z,25.40
2022-12-09T04:26:04.295Z,26.58
2022-12-09T04:26:29.789Z,27.83
2022-12-09T04:26:52.711Z,27.50
2022-12-09T04:27:15.385Z,27.80
2022-12-09T04:27:38.287Z,27.10
2022-12-09T04:28:01.150Z,28.58
2022-12-09T04:28:24.175Z,25.73
2022-12-09T04:28:47.098Z,26.40
2022-12-09T04:29:10.654Z,26.00
2022-12-09T04:29:33.389Z,27.63
2022-12-09T04:29:56.232Z,25.35
2022-12-09T04:30:19.259Z,26.23
2022-12-09T04:30:45.421Z,25.40
2022-12-09T04:31:11.271Z,27.75
2022-12-09T04:31:34.289Z,27.63
2022-12-09T04:31:57.896Z,27.58
2022-12-09T04:32:21.139Z,27.55
2022-12-09T04:32:44.453Z,27.05
2022-12-09T04:33:07.673Z,28.08
2022-12-09T04:33:30.581Z,27.30
2022-12-09T04:33:53.529Z,26.60
2022-12-09T04:34:16.791Z,26.27
2022-12-09T04:34:39.573Z,26.92
2022-12-09T04:35:03.092Z,26.77
2022-12-09T04:35:25.933Z,27.52
2022-12-09T04:35:48.679Z,27.35
2022-12-09T04:36:14.598Z,26.25
2022-12-09T04:36:37.383Z,27.75
2022-12-09T04:37:00.272Z,27.25
2022-12-09T04:37:23.193Z,26.48
2022-12-09T04:37:46.176Z,26.10
2022-12-09T04:38:09.558Z,26.67
2022-12-09T04:38:32.759Z,26.35
2022-12-09T04:38:58.376Z,26.80
2022-12-09T04:39:21.186Z,26.10
2022-12-09T04:39:44.162Z,26.15
2022-12-09T04:40:08.943Z,25.65
2022-12-09T04:40:31.893Z,25.65
2022-12-09T04:40:54.876Z,26.13
2022-12-09T04:41:20.500Z,26.65
2022-12-09T04:41:43.580Z,27.45
2022-12-09T04:42:06.291Z,28.02
2022-12-09T04:42:29.805Z,26.05
2022-12-09T04:42:52.769Z,25.80
2022-12-09T04:43:15.920Z,27.65
2022-12-09T04:43:38.739Z,26.92
2022-12-09T04:44:01.548Z,27.17
2022-12-09T04:44:24.838Z,27.20
2022-12-09T04:44:47.522Z,27.95
2022-12-09T04:45:11.204Z,27.58
2022-12-09T04:45:34.585Z,25.52
2022-12-09T04:46:00.687Z,24.88
2022-12-09T04:46:26.193Z,27.30
2022-12-09T04:46:49.401Z,26.95
2022-12-09T04:47:12.660Z,28.23
2022-12-09T04:47:36.062Z,27.42
2022-12-09T04:47:59.623Z,27.08
2022-12-09T04:48:22.405Z,26.58
2022-12-09T04:48:45.708Z,25.85
2022-12-09T04:49:08.916Z,27.77
2022-12-09T04:49:34.350Z,29.33
2022-12-09T04:49:57.806Z,25.13
2022-12-09T04:50:21.000Z,26.55
2022-12-09T04:50:44.191Z,26.83
2022-12-09T04:51:08.356Z,26.92
2022-12-09T04:51:39.126Z,27.02
2022-12-09T04:52:03.035Z,27.55
2022-12-09T04:52:26.328Z,25.67
2022-12-09T04:52:51.747Z,26.75
2022-12-09T04:53:14.552Z,26.65
2022-12-09T04:53:37.561Z,26.27
2022-12-09T04:54:00.549Z,25.63
2022-12-09T04:54:24.328Z,26.17
2022-12-09T04:54:47.480Z,27.08
2022-12-09T04:55:10.450Z,27.05
2022-12-09T04:55:33.129Z,25.20
2022-12-09T04:56:01.206Z,25.90
2022-12-09T04:56:24.384Z,26.63
2022-12-09T04:56:47.337Z,27.77
2022-12-09T04:57:12.437Z,29.40
2022-12-09T04:57:36.341Z,26.70
2022-12-09T04:57:59.512Z,26.25
2022-12-09T04:58:22.265Z,27.17
2022-12-09T04:58:45.166Z,27.08
2022-12-09T04:59:08.113Z,28.02
2022-12-09T04:59:31.696Z,27.55
2022-12-09T04:59:55.023Z,27.05
2022-12-09T05:00:20.142Z,27.60
2022-12-09T05:00:43.288Z,27.00
2022-12-09T05:01:07.481Z,28.20
2022-12-09T05:01:31.779Z,28.08
2022-12-09T05:01:54.928Z,26.35
2022-12-09T05:02:17.876Z,27.85
2022-12-09T05:02:41.138Z,27.70
2022-12-09T05:03:04.540Z,31.00
2022-12-09T05:03:28.096Z,28.17
2022-12-09T05:03:51.748Z,28.17
2022-12-09T05:04:14.851Z,26.80
2022-12-09T05:04:38.401Z,28.00
2022-12-09T05:05:02.599Z,27.35
2022-12-09T05:05:25.689Z,26.73
2022-12-09T05:05:48.843Z,28.63
2022-12-09T05:06:13.650Z,28.45
2022-12-09T05:06:38.706Z,29.48
2022-12-09T05:07:02.271Z,28.73
2022-12-09T05:07:25.523Z,29.50
2022-12-09T05:07:48.543Z,28.92
2022-12-09T05:08:11.582Z,29.63
2022-12-09T05:08:35.114Z,29.70
2022-12-09T05:08:58.644Z,29.10
2022-12-09T05:09:21.916Z,29.67
2022-12-09T05:09:45.298Z,30.30
2022-12-09T05:10:11.810Z,29.15
2022-12-09T05:10:34.851Z,29.73
2022-12-09T05:10:58.097Z,29.42
2022-12-09T05:11:22.409Z,30.85